Time;durP1;ratioP1;P1;durP2;ratioP2;P2;SDS_P1;SDS_P2;PMS_P1;PMS_P2;Temp;Humidity;BMP_temperature;BMP_pressure;BME280_temperature;BME280_humidity;BME280_pressure;Samples;Min_cycle;Max_cycle;Signal;HPM_P1;HPM_P2
2020/12/12 00:02:20;;;;;;;48.92;25.95;;;4.70;96.00;;;;;;5035259;28;20030;-90
2020/12/12 00:04:46;;;;;;;47.58;24.75;;;4.60;96.00;;;;;;5032726;28;20481;-90
2020/12/12 00:07:11;;;;;;;54.17;27.15;;;4.70;96.30;;;;;;5020724;28;20036;-90
2020/12/12 00:09:37;;;;;;;52.88;27.50;;;4.70;96.00;;;;;;5030817;28;20029;-90
2020/12/12 00:12:04;;;;;;;58.33;28.27;;;4.70;96.00;;;;;;5016601;28;20040;-89
2020/12/12 00:14:31;;;;;;;58.55;28.10;;;4.70;96.00;;;;;;5037331;28;20055;-90
2020/12/12 00:16:56;;;;;;;58.25;27.58;;;4.70;96.00;;;;;;5037303;28;20429;-89
2020/12/12 00:19:22;;;;;;;53.17;27.25;;;4.70;96.00;;;;;;5031780;28;20082;-89
2020/12/12 00:21:52;;;;;;;51.88;25.80;;;4.70;96.00;;;;;;5042752;28;20021;-90
2020/12/12 00:24:17;;;;;;;62.97;28.73;;;4.70;96.00;;;;;;5046534;28;20056;-89
2020/12/12 00:26:43;;;;;;;57.97;27.77;;;4.70;96.00;;;;;;5032809;28;20041;-89
2020/12/12 00:29:09;;;;;;;52.50;26.63;;;4.70;96.00;;;;;;5023445;28;20025;-90
2020/12/12 00:31:35;;;;;;;64.20;29.85;;;4.70;96.00;;;;;;5019005;28;20028;-89
2020/12/12 00:34:01;;;;;;;62.13;30.17;;;4.70;96.10;;;;;;5026341;28;20037;-90
2020/12/12 00:36:26;;;;;;;57.88;27.08;;;4.70;96.00;;;;;;5032005;28;20040;-89
2020/12/12 00:38:52;;;;;;;61.20;30.50;;;4.70;96.00;;;;;;5029220;28;20056;-90
2020/12/12 00:41:17;;;;;;;64.75;32.35;;;4.70;96.00;;;;;;5029859;28;20049;-89
2020/12/12 00:43:43;;;;;;;55.47;27.38;;;4.70;96.00;;;;;;5041159;28;20091;-90
2020/12/12 00:46:09;;;;;;;67.57;30.90;;;4.70;96.00;;;;;;5042503;28;20046;-89
2020/12/12 00:48:34;;;;;;;64.60;30.88;;;4.70;96.00;;;;;;5034290;28;20389;-89
2020/12/12 00:51:00;;;;;;;74.88;32.53;;;4.70;96.30;;;;;;5034087;28;20024;-90
2020/12/12 00:53:25;;;;;;;65.43;31.17;;;4.70;96.10;;;;;;5018691;28;20033;-89
2020/12/12 00:55:55;;;;;;;61.38;30.30;;;4.70;96.10;;;;;;5030847;28;20390;-89
2020/12/12 00:58:21;;;;;;;64.88;30.88;;;4.70;96.10;;;;;;5026162;28;20069;-90
2020/12/12 01:00:47;;;;;;;67.93;31.27;;;4.70;96.10;;;;;;5032546;28;20021;-90
2020/12/12 01:03:12;;;;;;;71.78;32.75;;;4.70;96.10;;;;;;5034915;28;20025;-90
2020/12/12 01:05:38;;;;;;;63.65;30.48;;;4.80;96.10;;;;;;5035498;28;20030;-90
2020/12/12 01:08:04;;;;;;;61.83;29.27;;;4.80;96.10;;;;;;5020010;28;20026;-89
2020/12/12 01:10:30;;;;;;;65.07;31.20;;;4.80;96.10;;;;;;5033651;28;20036;-90
2020/12/12 01:12:55;;;;;;;64.68;30.23;;;4.80;96.10;;;;;;5033480;28;20033;-90
2020/12/12 01:15:22;;;;;;;59.17;28.73;;;4.80;96.10;;;;;;5033953;28;20036;-90
2020/12/12 01:17:47;;;;;;;64.38;31.42;;;4.80;96.10;;;;;;5035432;28;20065;-89
2020/12/12 01:20:13;;;;;;;60.60;28.13;;;4.80;96.10;;;;;;5028396;28;20092;-89
2020/12/12 01:22:39;;;;;;;57.53;27.90;;;4.80;96.10;;;;;;5031203;28;20032;-88
2020/12/12 01:25:05;;;;;;;61.22;29.40;;;4.80;96.10;;;;;;5021377;28;20025;-88
2020/12/12 01:27:30;;;;;;;54.30;28.25;;;4.80;96.10;;;;;;5032651;28;20029;-88
2020/12/12 01:29:56;;;;;;;53.25;27.38;;;4.80;96.10;;;;;;5033395;28;20044;-89
2020/12/12 01:32:22;;;;;;;66.45;29.08;;;4.80;96.10;;;;;;5030787;28;20461;-88
2020/12/12 01:34:47;;;;;;;47.53;23.95;;;4.80;96.20;;;;;;5027394;28;20021;-88
2020/12/12 01:37:13;;;;;;;54.45;27.45;;;4.80;96.20;;;;;;5031686;28;20026;-89
2020/12/12 01:39:38;;;;;;;45.75;24.67;;;4.80;96.10;;;;;;5017304;28;20058;-89
2020/12/12 01:42:04;;;;;;;45.13;24.23;;;4.80;96.20;;;;;;5019178;28;20029;-89
2020/12/12 01:44:30;;;;;;;50.10;25.30;;;4.80;96.20;;;;;;5020588;28;20048;-89
2020/12/12 01:46:57;;;;;;;51.65;25.73;;;4.80;96.20;;;;;;5022170;28;20048;-88
2020/12/12 01:49:23;;;;;;;56.13;27.13;;;4.90;96.20;;;;;;5034138;28;20048;-89
2020/12/12 01:51:48;;;;;;;52.55;25.85;;;4.80;96.20;;;;;;5023002;28;20091;-89
2020/12/12 01:54:14;;;;;;;55.03;27.80;;;4.90;96.20;;;;;;5033232;28;20036;-89
2020/12/12 01:56:40;;;;;;;57.17;27.88;;;4.90;96.20;;;;;;5032544;28;20029;-88
2020/12/12 01:59:05;;;;;;;59.88;28.70;;;4.90;96.20;;;;;;5030010;28;20402;-88
2020/12/12 02:01:38;;;;;;;54.00;27.73;;;4.90;96.20;;;;;;5037479;28;20037;-89
2020/12/12 02:04:07;;;;;;;62.80;30.05;;;4.90;96.20;;;;;;5037453;28;20115;-89
2020/12/12 02:06:35;;;;;;;66.65;29.42;;;4.90;96.20;;;;;;5046340;28;20505;-90
2020/12/12 02:09:01;;;;;;;61.50;28.48;;;4.90;96.20;;;;;;5032677;28;20029;-89
2020/12/12 02:11:26;;;;;;;61.63;29.48;;;5.00;96.20;;;;;;5031965;28;20029;-89
2020/12/12 02:13:55;;;;;;;59.53;30.42;;;4.90;96.20;;;;;;5033849;28;20029;-90
2020/12/12 02:16:21;;;;;;;68.55;31.60;;;5.00;96.30;;;;;;5045469;28;20032;-89
2020/12/12 02:18:46;;;;;;;61.05;28.73;;;5.00;96.20;;;;;;5043112;28;20464;-89
2020/12/12 02:21:12;;;;;;;63.10;29.25;;;5.00;96.20;;;;;;5026187;28;20562;-89
2020/12/12 02:23:37;;;;;;;66.20;29.83;;;5.00;96.20;;;;;;5048107;28;20088;-89
2020/12/12 02:26:04;;;;;;;58.95;27.38;;;5.00;96.20;;;;;;5020483;28;20038;-89
2020/12/12 02:28:38;;;;;;;58.13;29.50;;;5.00;96.20;;;;;;5020884;28;20025;-89
2020/12/12 02:31:04;;;;;;;67.60;30.20;;;5.00;96.20;;;;;;5031367;28;20072;-89
2020/12/12 02:33:30;;;;;;;62.97;29.33;;;5.00;96.30;;;;;;5026033;28;20018;-89
2020/12/12 02:35:57;;;;;;;64.88;29.38;;;5.00;96.20;;;;;;5025752;28;20430;-88
2020/12/12 02:38:23;;;;;;;69.78;30.95;;;5.00;96.20;;;;;;5033636;28;20124;-88
2020/12/12 02:40:50;;;;;;;69.47;31.52;;;5.00;96.20;;;;;;5032381;28;20029;-88
2020/12/12 02:43:15;;;;;;;70.40;31.00;;;5.00;96.30;;;;;;5032143;28;20049;-88
2020/12/12 02:45:45;;;;;;;70.40;31.88;;;5.00;96.20;;;;;;5022594;28;20025;-88
2020/12/12 02:48:10;;;;;;;66.00;30.05;;;5.10;96.20;;;;;;5017948;28;20113;-88
2020/12/12 02:50:36;;;;;;;62.17;28.65;;;5.00;96.20;;;;;;5032207;28;20049;-88
2020/12/12 02:53:02;;;;;;;66.15;28.80;;;5.00;96.50;;;;;;5032413;28;20084;-89
2020/12/12 02:55:27;;;;;;;62.53;31.25;;;5.00;96.30;;;;;;5032685;28;20045;-88
2020/12/12 02:57:53;;;;;;;70.47;29.27;;;5.00;96.20;;;;;;5028430;28;20037;-89
2020/12/12 03:00:22;;;;;;;61.90;28.38;;;5.00;96.20;;;;;;5033831;28;20389;-89
2020/12/12 03:02:47;;;;;;;68.30;28.05;;;5.00;96.30;;;;;;5029362;28;20033;-89
2020/12/12 03:05:13;;;;;;;63.35;28.25;;;5.00;96.30;;;;;;5032818;28;20367;-89
2020/12/12 03:07:39;;;;;;;68.57;30.20;;;5.00;96.30;;;;;;5034978;28;20078;-89
2020/12/12 03:10:06;;;;;;;66.05;29.65;;;5.00;96.30;;;;;;5051895;28;20070;-89
2020/12/12 03:12:36;;;;;;;65.05;31.10;;;5.00;96.30;;;;;;5036728;28;20025;-89
2020/12/12 03:15:04;;;;;;;65.40;29.08;;;5.00;96.30;;;;;;5031970;28;20068;-89
2020/12/12 03:17:30;;;;;;;54.70;27.80;;;5.00;96.30;;;;;;5028756;28;20133;-89
2020/12/12 03:19:55;;;;;;;65.55;29.92;;;5.00;96.30;;;;;;5029030;28;20462;-89
2020/12/12 03:22:21;;;;;;;71.47;30.00;;;5.10;96.30;;;;;;5033134;28;20029;-89
2020/12/12 03:24:47;;;;;;;76.40;29.73;;;5.10;96.30;;;;;;5038889;28;20024;-89
2020/12/12 03:27:12;;;;;;;63.70;29.40;;;5.10;96.30;;;;;;5039586;28;20076;-89
2020/12/12 03:29:38;;;;;;;72.45;31.65;;;5.10;96.40;;;;;;5023776;28;20148;-89
2020/12/12 03:32:08;;;;;;;62.75;29.25;;;5.10;96.40;;;;;;5025980;28;20030;-89
2020/12/12 03:34:35;;;;;;;61.80;27.30;;;5.10;96.40;;;;;;5020636;28;20053;-89
2020/12/12 03:37:01;;;;;;;65.55;28.25;;;5.10;96.40;;;;;;5033458;28;20037;-89
2020/12/12 03:39:26;;;;;;;66.68;30.30;;;5.10;96.30;;;;;;5032580;28;20025;-89
2020/12/12 03:41:52;;;;;;;64.80;30.33;;;5.20;96.40;;;;;;5035455;28;20045;-89
2020/12/12 03:44:17;;;;;;;66.47;30.25;;;5.10;96.30;;;;;;5025459;28;20441;-89
2020/12/12 03:46:43;;;;;;;64.53;29.20;;;5.10;96.30;;;;;;5026832;28;20041;-90
2020/12/12 03:49:08;;;;;;;67.53;30.23;;;5.20;96.40;;;;;;5039401;28;20021;-89
2020/12/12 03:51:34;;;;;;;66.22;28.42;;;5.20;96.40;;;;;;5041085;28;20097;-89
2020/12/12 03:53:59;;;;;;;69.57;30.73;;;5.20;96.40;;;;;;5027323;28;20029;-90
2020/12/12 03:56:25;;;;;;;56.83;27.60;;;5.20;96.40;;;;;;5031836;28;20025;-89
2020/12/12 03:58:50;;;;;;;68.65;30.45;;;5.20;96.40;;;;;;5031469;28;20038;-89
2020/12/12 04:01:16;;;;;;;64.65;28.55;;;5.20;96.40;;;;;;5027061;28;20025;-89
2020/12/12 04:03:41;;;;;;;67.93;29.13;;;5.20;96.40;;;;;;5032487;28;20033;-89
2020/12/12 04:06:07;;;;;;;60.13;28.63;;;5.20;96.40;;;;;;5055528;28;20028;-89
2020/12/12 04:08:32;;;;;;;59.15;29.60;;;5.20;96.40;;;;;;5042080;28;20048;-89
2020/12/12 04:11:01;;;;;;;66.75;29.13;;;5.30;96.40;;;;;;5035649;28;20140;-89
2020/12/12 04:13:27;;;;;;;58.63;28.17;;;5.30;96.40;;;;;;5021233;28;20044;-89
2020/12/12 04:15:52;;;;;;;55.13;26.98;;;5.30;96.70;;;;;;5032264;28;20030;-89
2020/12/12 04:18:18;;;;;;;54.03;27.73;;;5.30;96.40;;;;;;5034970;28;20037;-89
2020/12/12 04:20:43;;;;;;;52.20;26.63;;;5.30;96.40;;;;;;5032021;28;20068;-89
2020/12/12 04:23:09;;;;;;;57.08;26.90;;;5.30;96.40;;;;;;5035111;28;20022;-90
2020/12/12 04:25:34;;;;;;;60.45;27.65;;;5.30;96.40;;;;;;5047993;28;20381;-89
2020/12/12 04:28:00;;;;;;;59.97;28.30;;;5.30;96.40;;;;;;5048551;28;20454;-90
2020/12/12 04:30:25;;;;;;;54.75;26.60;;;5.30;96.40;;;;;;5033909;28;20030;-90
2020/12/12 04:32:51;;;;;;;54.85;26.02;;;5.40;96.40;;;;;;5019538;28;20030;-88
2020/12/12 04:35:16;;;;;;;58.08;27.77;;;5.40;96.40;;;;;;5031373;28;20040;-88
2020/12/12 04:37:42;;;;;;;55.92;26.88;;;5.40;96.40;;;;;;5029582;28;20121;-88
2020/12/12 04:40:10;;;;;;;57.45;27.00;;;5.40;96.40;;;;;;5034235;28;20032;-89
2020/12/12 04:42:37;;;;;;;54.97;27.58;;;5.40;96.40;;;;;;5034388;28;20159;-88
2020/12/12 04:45:04;;;;;;;56.55;26.23;;;5.40;96.40;;;;;;5039556;28;21801;-89
2020/12/12 04:47:31;;;;;;;58.47;27.95;;;5.40;96.40;;;;;;5037775;28;20040;-88
2020/12/12 04:49:58;;;;;;;53.28;26.02;;;5.40;96.40;;;;;;5043137;28;20022;-89
2020/12/12 04:52:24;;;;;;;61.50;28.17;;;5.40;96.30;;;;;;5038384;28;20021;-88
2020/12/12 04:54:51;;;;;;;60.28;27.17;;;5.40;96.40;;;;;;5037692;28;20363;-88
2020/12/12 04:57:17;;;;;;;56.10;26.95;;;5.40;96.30;;;;;;5037387;28;20021;-89
2020/12/12 04:59:43;;;;;;;52.40;26.85;;;5.40;96.30;;;;;;5042111;28;20034;-89
2020/12/12 05:02:12;;;;;;;51.25;23.88;;;5.40;96.30;;;;;;5028829;28;20028;-89
2020/12/12 05:04:39;;;;;;;55.72;26.63;;;5.40;96.60;;;;;;5030465;28;20021;-88
2020/12/12 05:07:05;;;;;;;59.55;25.80;;;5.40;96.40;;;;;;5032338;28;20245;-88
2020/12/12 05:09:31;;;;;;;62.90;26.92;;;5.50;96.30;;;;;;5034501;28;20025;-87
2020/12/12 05:11:57;;;;;;;58.85;25.25;;;5.40;96.30;;;;;;5022002;28;20048;-88
2020/12/12 05:14:22;;;;;;;67.70;27.60;;;5.40;96.30;;;;;;5021584;28;20026;-88
2020/12/12 05:16:48;;;;;;;55.88;26.65;;;5.40;96.30;;;;;;5033808;28;20501;-88
2020/12/12 05:19:14;;;;;;;62.20;26.60;;;5.40;96.30;;;;;;5043922;28;20391;-88
2020/12/12 05:21:50;;;;;;;70.80;26.98;;;5.40;96.30;;;;;;5044293;28;20045;-87
2020/12/12 05:24:16;;;;;;;62.05;26.35;;;5.40;96.30;;;;;;5028732;28;20036;-88
2020/12/12 05:26:45;;;;;;;59.38;25.83;;;5.40;96.30;;;;;;5032197;28;20030;-88
2020/12/12 05:29:15;;;;;;;62.53;26.98;;;5.40;96.30;;;;;;5018105;28;20030;-89
2020/12/12 05:31:41;;;;;;;73.70;26.38;;;5.40;96.30;;;;;;5024087;28;20033;-89
2020/12/12 05:34:14;;;;;;;68.85;27.00;;;5.40;96.30;;;;;;5026243;28;20052;-89
2020/12/12 05:36:42;;;;;;;74.20;26.10;;;5.40;96.30;;;;;;5014789;28;20032;-89
2020/12/12 05:39:10;;;;;;;89.57;28.88;;;5.40;96.30;;;;;;5017439;28;20030;-89
2020/12/12 05:41:36;;;;;;;94.95;28.00;;;5.40;96.40;;;;;;5033278;28;20406;-89
2020/12/12 05:44:02;;;;;;;305.38;40.35;;;5.40;96.40;;;;;;5030302;28;20046;-89
2020/12/12 05:46:28;;;;;;;89.97;27.50;;;5.50;96.40;;;;;;5032500;28;20022;-89
2020/12/12 05:48:54;;;;;;;108.63;29.20;;;5.40;96.40;;;;;;5031039;28;20463;-90
2020/12/12 05:51:20;;;;;;;79.90;26.58;;;5.40;96.40;;;;;;5022239;28;20116;-89
2020/12/12 05:53:47;;;;;;;99.32;28.08;;;5.50;96.40;;;;;;5040353;28;20089;-89
2020/12/12 05:56:14;;;;;;;102.32;29.02;;;5.50;96.40;;;;;;5014725;28;20439;-88
2020/12/12 05:58:43;;;;;;;100.57;28.70;;;5.50;96.40;;;;;;5032982;28;20029;-88
2020/12/12 06:01:17;;;;;;;88.03;26.92;;;5.50;96.40;;;;;;5017240;28;20030;-88
2020/12/12 06:03:50;;;;;;;107.75;29.55;;;5.50;96.40;;;;;;5027246;28;20544;-89
2020/12/12 06:06:19;;;;;;;;;;;5.50;96.40;;;;;;5021925;28;20425;-89
2020/12/12 06:09:01;;;;;;;84.95;25.75;;;5.50;96.40;;;;;;5027936;28;19909;-89
2020/12/12 06:11:31;;;;;;;114.35;29.60;;;5.50;96.50;;;;;;5017386;28;20026;-89
2020/12/12 06:14:02;;;;;;;74.55;25.65;;;5.50;96.50;;;;;;5018567;28;20029;-89
2020/12/12 06:16:30;;;;;;;78.40;26.83;;;5.50;96.50;;;;;;5026179;28;20030;-89
2020/12/12 06:19:15;;;;;;;101.78;28.58;;;5.50;96.50;;;;;;5025200;28;20041;-89
2020/12/12 06:21:45;;;;;;;88.82;27.23;;;5.50;96.50;;;;;;5037296;28;20014;-89
2020/12/12 06:24:15;;;;;;;103.70;28.92;;;5.60;96.50;;;;;;5032636;28;20462;-88
2020/12/12 06:26:59;;;;;;;103.72;29.60;;;5.60;96.50;;;;;;5023296;28;20026;-88
2020/12/12 06:29:29;;;;;;;92.90;28.35;;;5.60;96.50;;;;;;5033836;28;20071;-88
2020/12/12 06:31:54;;;;;;;103.85;28.40;;;5.60;96.60;;;;;;5032965;28;20516;-88
2020/12/12 06:34:48;;;;;;;66.65;24.85;;;5.60;96.50;;;;;;5014330;28;20030;-89
2020/12/12 06:37:32;;;;;;;;;;;5.60;96.50;;;;;;5031920;28;20040;-88
2020/12/12 06:39:59;;;;;;;89.65;26.48;;;5.60;96.50;;;;;;5035598;28;19909;-88
2020/12/12 06:42:35;;;;;;;97.68;26.63;;;5.60;96.50;;;;;;5031997;28;20119;-89
2020/12/12 06:45:18;;;;;;;112.07;27.95;;;5.70;96.60;;;;;;5035246;28;20136;-88
2020/12/12 06:47:49;;;;;;;80.80;25.15;;;5.70;96.60;;;;;;5034619;28;20029;-87
2020/12/12 06:50:16;;;;;;;117.00;29.38;;;5.70;96.60;;;;;;5033340;28;20167;-88
2020/12/12 06:52:43;;;;;;;140.38;30.88;;;5.70;96.50;;;;;;5025966;28;20509;-90
2020/12/12 06:55:13;;;;;;;91.45;26.52;;;5.70;96.50;;;;;;5019875;28;20033;-88
2020/12/12 06:57:43;;;;;;;113.00;30.45;;;5.70;96.60;;;;;;5041972;28;20039;-88
2020/12/12 07:00:18;;;;;;;165.55;30.13;;;5.70;96.60;;;;;;5022978;28;20068;-89
2020/12/12 07:03:01;;;;;;;144.73;29.85;;;5.70;96.50;;;;;;5032902;28;20021;-88
2020/12/12 07:05:29;;;;;;;;;;;5.70;96.60;;;;;;5024341;28;20030;-88
2020/12/12 07:08:03;;;;;;;118.90;29.10;;;5.70;96.60;;;;;;5019274;28;19909;-89
2020/12/12 07:10:33;;;;;;;125.97;30.40;;;5.70;96.60;;;;;;5039985;28;20136;-88
2020/12/12 07:13:03;;;;;;;156.38;32.33;;;5.70;96.60;;;;;;5035714;28;20025;-89
2020/12/12 07:15:32;;;;;;;111.18;30.30;;;5.80;96.60;;;;;;5032576;28;20025;-90
2020/12/12 07:18:11;;;;;;;110.70;30.60;;;5.80;96.60;;;;;;5032412;28;20041;-90
2020/12/12 07:20:39;;;;;;;132.95;29.65;;;5.80;96.60;;;;;;5018295;28;20068;-91
2020/12/12 07:23:05;;;;;;;119.45;33.33;;;5.80;96.60;;;;;;5032580;28;20121;-90
2020/12/12 07:25:33;;;;;;;77.72;26.35;;;5.80;96.60;;;;;;5030243;28;20490;-89
2020/12/12 07:27:59;;;;;;;145.27;32.85;;;5.80;96.60;;;;;;5026855;28;20108;-89
2020/12/12 07:30:25;;;;;;;237.48;36.95;;;5.90;96.70;;;;;;5028891;28;20025;-90
2020/12/12 07:32:50;;;;;;;92.40;28.63;;;5.90;96.70;;;;;;5037039;28;20099;-90
2020/12/12 07:35:16;;;;;;;159.63;31.83;;;5.90;96.70;;;;;;5026514;28;20028;-90
2020/12/12 07:37:42;;;;;;;114.13;30.58;;;6.00;96.70;;;;;;5031016;28;20034;-89
2020/12/12 07:40:07;;;;;;;224.80;34.45;;;5.90;96.70;;;;;;5026770;28;20029;-89
2020/12/12 07:42:35;;;;;;;223.25;36.17;;;6.00;96.70;;;;;;5031437;28;20103;-88
2020/12/12 07:45:25;;;;;;;98.05;28.85;;;6.00;96.70;;;;;;5022081;28;20050;-89
2020/12/12 07:47:59;;;;;;;130.38;28.80;;;6.00;96.70;;;;;;5020395;28;20025;-88
2020/12/12 07:50:25;;;;;;;101.82;26.83;;;6.00;96.70;;;;;;5021378;28;20628;-89
2020/12/12 07:52:50;;;;;;;165.40;31.55;;;6.00;96.70;;;;;;5040175;28;20120;-88
2020/12/12 07:55:21;;;;;;;167.77;31.63;;;6.00;96.70;;;;;;5033109;28;20061;-89
2020/12/12 07:57:53;;;;;;;114.85;28.83;;;6.10;96.70;;;;;;5026257;28;20038;-88
2020/12/12 08:00:19;;;;;;;207.00;41.95;;;6.10;96.70;;;;;;5028503;28;20049;-88
2020/12/12 08:02:45;;;;;;;117.20;33.20;;;6.10;96.70;;;;;;5034264;28;20037;-88
2020/12/12 08:05:11;;;;;;;195.35;35.38;;;6.00;96.70;;;;;;5035369;28;20041;-88
2020/12/12 08:07:37;;;;;;;248.98;36.60;;;6.10;97.00;;;;;;5035610;28;20470;-88
2020/12/12 08:10:05;;;;;;;178.63;33.78;;;6.10;96.70;;;;;;5034381;28;20032;-88
2020/12/12 08:12:33;;;;;;;137.30;29.58;;;6.10;96.70;;;;;;5034874;28;20386;-89
2020/12/12 08:15:37;;;;;;;414.95;41.08;;;6.10;96.70;;;;;;5028572;28;20057;-88
2020/12/12 08:17:58;;;;;;;138.30;31.65;;;6.20;96.70;;;;;;5016431;28;20135;-89
2020/12/12 08:20:24;;;;;;;151.65;30.65;;;6.20;96.80;;;;;;5026039;28;20030;-89
2020/12/12 08:22:51;;;;;;;178.43;34.53;;;6.20;96.80;;;;;;5055587;28;20021;-90
2020/12/12 08:25:18;;;;;;;154.68;32.72;;;6.30;96.80;;;;;;5034351;28;20109;-89
2020/12/12 08:27:44;;;;;;;193.57;31.88;;;6.30;96.80;;;;;;5034180;28;20036;-88
2020/12/12 08:30:10;;;;;;;250.68;35.70;;;6.30;96.80;;;;;;5027002;28;20038;-90
2020/12/12 08:32:40;;;;;;;390.40;41.05;;;6.30;96.70;;;;;;5032804;28;20030;-90
2020/12/12 08:35:07;;;;;;;160.80;32.78;;;6.30;96.80;;;;;;5028794;28;20037;-91
2020/12/12 08:37:33;;;;;;;203.65;33.83;;;6.30;96.70;;;;;;5033255;28;20478;-89
2020/12/12 08:40:04;;;;;;;204.20;32.50;;;6.40;96.70;;;;;;5034926;28;20040;-90
2020/12/12 08:42:29;;;;;;;210.75;36.20;;;6.40;96.80;;;;;;5026980;28;20033;-88
2020/12/12 08:44:55;;;;;;;216.27;37.15;;;6.40;96.80;;;;;;5027978;28;20205;-89
2020/12/12 08:47:20;;;;;;;165.27;34.60;;;6.40;96.80;;;;;;5019049;28;20083;-89
2020/12/12 08:49:55;;;;;;;260.45;38.08;;;6.50;96.80;;;;;;5022219;28;20116;-89
2020/12/12 08:52:25;;;;;;;198.13;33.97;;;6.50;96.80;;;;;;5034411;28;20051;-89
2020/12/12 08:54:58;;;;;;;344.67;39.60;;;6.50;96.80;;;;;;5033923;28;20082;-89
2020/12/12 08:57:24;;;;;;;212.85;36.92;;;6.50;96.80;;;;;;5041483;28;20034;-89
2020/12/12 09:00:01;;;;;;;284.25;39.47;;;6.60;96.80;;;;;;5047665;28;20034;-89
2020/12/12 09:02:27;;;;;;;221.07;35.47;;;6.60;96.70;;;;;;5017538;28;20036;-89
2020/12/12 09:05:09;;;;;;;186.93;33.60;;;6.60;96.80;;;;;;5028933;28;20115;-89
2020/12/12 09:07:35;;;;;;;165.53;33.03;;;6.70;96.80;;;;;;5030877;28;20033;-89
2020/12/12 09:10:12;;;;;;;181.40;34.30;;;6.60;96.70;;;;;;5034775;28;20273;-89
2020/12/12 09:12:49;;;;;;;180.60;35.75;;;6.60;96.70;;;;;;5031259;28;20111;-90
2020/12/12 09:15:15;;;;;;;179.77;35.05;;;6.60;96.70;;;;;;5033337;28;20041;-89
2020/12/12 09:17:41;;;;;;;251.30;35.92;;;6.60;96.70;;;;;;5032819;28;20033;-89
2020/12/12 09:20:08;;;;;;;276.52;38.47;;;6.60;96.70;;;;;;5032946;28;20040;-89
2020/12/12 09:22:35;;;;;;;144.20;32.33;;;6.70;96.80;;;;;;5033735;28;20108;-89
2020/12/12 09:25:01;;;;;;;233.23;37.55;;;6.70;96.80;;;;;;5032234;28;20029;-88
2020/12/12 09:27:27;;;;;;;282.23;36.35;;;6.70;96.80;;;;;;5027020;28;20017;-89
2020/12/12 09:29:52;;;;;;;251.45;36.63;;;6.80;96.80;;;;;;5025011;28;20036;-89
2020/12/12 09:32:18;;;;;;;138.73;32.97;;;6.80;96.80;;;;;;5033824;28;20045;-89
2020/12/12 09:34:43;;;;;;;145.68;33.22;;;6.80;96.80;;;;;;5033801;28;20051;-89
2020/12/12 09:37:09;;;;;;;230.10;35.13;;;6.90;96.80;;;;;;5033864;28;20152;-88
2020/12/12 09:39:34;;;;;;;149.48;34.13;;;6.90;97.10;;;;;;5031836;28;20033;-89
2020/12/12 09:42:00;;;;;;;174.60;33.17;;;6.90;96.80;;;;;;5015713;28;20484;-88
2020/12/12 09:44:26;;;;;;;211.48;36.08;;;6.90;96.80;;;;;;5036045;28;20077;-88
2020/12/12 09:46:53;;;;;;;152.32;33.22;;;6.90;96.80;;;;;;5033796;28;20056;-89
2020/12/12 09:49:19;;;;;;;151.55;35.47;;;7.00;96.80;;;;;;5033290;28;20424;-89
2020/12/12 09:51:46;;;;;;;163.27;35.08;;;7.00;96.80;;;;;;5030514;28;20071;-89
2020/12/12 09:54:12;;;;;;;137.95;33.58;;;7.00;96.80;;;;;;5019438;28;20029;-89
2020/12/12 09:56:38;;;;;;;186.43;36.28;;;7.10;96.80;;;;;;5036558;28;20029;-89
2020/12/12 09:59:04;;;;;;;156.27;35.00;;;7.10;96.80;;;;;;5036744;28;20033;-89
2020/12/12 10:01:29;;;;;;;171.13;36.08;;;7.10;96.80;;;;;;5040381;28;20498;-89
2020/12/12 10:03:55;;;;;;;134.85;34.70;;;7.10;96.70;;;;;;5040697;28;20036;-89
2020/12/12 10:06:20;;;;;;;148.45;35.28;;;7.20;96.70;;;;;;5030308;28;20025;-91
2020/12/12 10:08:46;;;;;;;157.85;36.75;;;7.20;96.70;;;;;;5046327;28;20029;-90
2020/12/12 10:11:11;;;;;;;135.98;35.35;;;7.20;96.80;;;;;;5050921;28;20482;-90
2020/12/12 10:13:37;;;;;;;133.38;36.47;;;7.20;96.80;;;;;;5033106;28;20071;-90
2020/12/12 10:16:03;;;;;;;121.72;33.97;;;7.20;96.70;;;;;;5029611;28;20030;-89
2020/12/12 10:18:28;;;;;;;120.85;32.58;;;7.30;96.80;;;;;;5026395;28;20034;-90
2020/12/12 10:20:54;;;;;;;132.60;35.75;;;7.30;96.80;;;;;;5033678;28;20018;-90
2020/12/12 10:23:19;;;;;;;119.35;35.88;;;7.30;96.80;;;;;;5031445;28;20065;-89
2020/12/12 10:25:46;;;;;;;101.53;33.53;;;7.40;96.80;;;;;;5032382;28;20533;-89
2020/12/12 10:28:11;;;;;;;100.93;30.98;;;7.40;96.70;;;;;;5039688;28;20025;-89
2020/12/12 10:30:37;;;;;;;118.07;34.45;;;7.40;96.70;;;;;;5049622;28;20090;-89
2020/12/12 10:33:03;;;;;;;132.73;36.20;;;7.40;96.60;;;;;;5032071;28;20025;-89
2020/12/12 10:35:30;;;;;;;94.95;31.85;;;7.40;96.60;;;;;;5032699;28;20036;-89
2020/12/12 10:37:56;;;;;;;100.50;33.20;;;7.50;96.70;;;;;;5024913;28;20049;-89
2020/12/12 10:42:54;;;;;;;82.97;32.47;;;7.50;96.70;;;;;;5032550;28;20469;-88
2020/12/12 10:45:20;;;;;;;95.13;32.15;;;7.50;96.60;;;;;;5033211;28;20040;-88
2020/12/12 10:47:46;;;;;;;97.85;32.97;;;7.50;96.60;;;;;;5033592;28;20063;-88
2020/12/12 10:50:12;;;;;;;108.85;36.83;;;7.50;96.60;;;;;;5041863;28;20021;-88
2020/12/12 10:52:37;;;;;;;104.07;34.83;;;7.50;96.60;;;;;;5031751;28;20539;-88
2020/12/12 10:55:04;;;;;;;115.78;35.97;;;7.50;96.60;;;;;;5031179;28;20017;-87
2020/12/12 10:57:30;;;;;;;83.53;30.80;;;7.50;96.60;;;;;;5030899;28;20065;-88
2020/12/12 10:59:56;;;;;;;89.57;31.70;;;7.60;96.60;;;;;;5018651;28;20053;-88
2020/12/12 11:02:21;;;;;;;88.53;31.15;;;7.60;96.60;;;;;;5030792;28;20022;-88
2020/12/12 11:04:47;;;;;;;91.13;33.22;;;7.60;96.60;;;;;;5022294;28;20026;-88
2020/12/12 11:07:14;;;;;;;99.80;33.88;;;7.60;96.60;;;;;;5028996;28;20083;-88
2020/12/12 11:09:40;;;;;;;110.78;34.55;;;7.70;96.60;;;;;;5030274;28;20032;-87
2020/12/12 11:12:06;;;;;;;102.35;31.77;;;7.70;96.60;;;;;;5021794;28;20030;-88
2020/12/12 11:14:34;;;;;;;115.97;34.05;;;7.80;96.60;;;;;;5032500;28;20061;-88
2020/12/12 11:17:00;;;;;;;106.53;35.40;;;7.80;96.60;;;;;;5029085;28;20034;-88
2020/12/12 11:19:27;;;;;;;147.73;38.97;;;7.80;96.60;;;;;;5032349;28;20413;-88
2020/12/12 11:21:54;;;;;;;157.45;41.33;;;7.80;96.60;;;;;;5024560;28;20080;-88
2020/12/12 11:24:19;;;;;;;113.60;37.22;;;7.90;96.60;;;;;;5032961;28;20067;-88
2020/12/12 11:26:46;;;;;;;123.60;38.17;;;7.90;96.50;;;;;;5038546;28;20130;-87
2020/12/12 11:29:14;;;;;;;115.32;35.17;;;7.90;96.50;;;;;;5032701;28;20022;-88
2020/12/12 11:31:41;;;;;;;126.15;38.70;;;7.90;96.50;;;;;;5031869;28;20528;-88
2020/12/12 11:34:14;;;;;;;122.85;36.35;;;7.90;96.50;;;;;;5022375;28;20030;-88
2020/12/12 11:36:58;;;;;;;;;;;8.00;96.50;;;;;;5021597;28;20025;-88
2020/12/12 11:39:31;;;;;;;130.55;34.00;;;8.00;96.50;;;;;;5032368;28;19945;-88
2020/12/12 11:42:12;;;;;;;161.32;38.17;;;8.00;96.50;;;;;;5031785;28;20036;-88
2020/12/12 11:47:06;;;;;;;120.57;34.58;;;8.00;96.50;;;;;;5022492;28;20409;-88
2020/12/12 11:49:32;;;;;;;144.70;36.20;;;8.00;96.50;;;;;;5029427;28;20028;-88
2020/12/12 11:51:57;;;;;;;177.15;37.22;;;8.00;96.50;;;;;;5031197;28;20462;-88
2020/12/12 11:54:23;;;;;;;133.75;35.42;;;8.10;96.50;;;;;;5040035;28;20029;-88
2020/12/12 11:56:48;;;;;;;172.27;39.83;;;8.10;96.50;;;;;;5047729;28;20025;-88
2020/12/12 11:59:15;;;;;;;190.07;38.53;;;8.10;96.50;;;;;;5029170;28;20044;-88
2020/12/12 12:01:41;;;;;;;179.35;40.45;;;8.20;96.60;;;;;;5035752;28;20018;-88
2020/12/12 12:04:06;;;;;;;173.05;40.95;;;8.20;96.50;;;;;;5033118;28;20390;-88
2020/12/12 12:06:32;;;;;;;183.23;40.45;;;8.20;96.60;;;;;;5032158;28;20032;-88
2020/12/12 12:11:34;;;;;;;187.98;41.22;;;8.30;96.60;;;;;;5035013;28;20034;-88
2020/12/12 12:14:01;;;;;;;198.13;41.63;;;8.30;96.60;;;;;;5035107;28;20025;-88
2020/12/12 12:16:27;;;;;;;236.77;43.65;;;8.30;96.60;;;;;;5036041;28;20519;-88
2020/12/12 12:18:53;;;;;;;187.00;38.13;;;8.40;96.50;;;;;;5019322;28;20049;-89
2020/12/12 12:21:21;;;;;;;200.48;39.25;;;8.40;96.50;;;;;;5034607;28;20028;-88
2020/12/12 12:23:46;;;;;;;216.57;42.30;;;8.40;96.60;;;;;;5035103;28;20101;-88
2020/12/12 12:26:14;;;;;;;183.63;39.97;;;8.40;96.60;;;;;;5035078;28;20105;-88
2020/12/12 12:28:40;;;;;;;201.02;40.55;;;8.50;96.60;;;;;;5034888;28;20068;-88
2020/12/12 12:31:05;;;;;;;281.40;43.95;;;8.50;96.60;;;;;;5034173;28;20053;-88
2020/12/12 12:33:31;;;;;;;187.60;38.65;;;8.60;96.60;;;;;;5015452;28;20029;-88
2020/12/12 12:35:56;;;;;;;169.55;36.13;;;8.60;96.60;;;;;;5026303;28;20045;-88
2020/12/12 12:38:22;;;;;;;236.85;39.80;;;8.60;96.50;;;;;;5019653;28;20037;-88
2020/12/12 12:40:48;;;;;;;252.68;42.88;;;8.60;96.50;;;;;;5015159;28;20022;-88
2020/12/12 12:43:14;;;;;;;214.88;39.97;;;8.60;96.40;;;;;;5024824;28;20037;-88